createdAt,value
2023-04-02T00:01:27.959Z,4.14
2023-04-02T00:04:31.829Z,4.01
2023-04-02T00:07:30.934Z,4.02
2023-04-02T00:09:59.937Z,4.07
2023-04-02T00:12:29.175Z,4.07
2023-04-02T00:14:58.180Z,4.16
2023-04-02T00:17:27.030Z,4.19
2023-04-02T00:20:00.467Z,4.14
2023-04-02T00:22:31.808Z,4.06
2023-04-02T00:25:03.674Z,4.14
2023-04-02T00:27:32.496Z,4.17
2023-04-02T00:30:04.396Z,4.16
2023-04-02T00:32:34.288Z,4.19
2023-04-02T00:35:02.742Z,4.22
2023-04-02T00:37:39.536Z,4.21
2023-04-02T00:40:16.875Z,4.21
2023-04-02T00:42:46.613Z,4.17
2023-04-02T00:45:23.213Z,4.10
2023-04-02T00:47:52.104Z,4.07
2023-04-02T00:50:28.989Z,4.00
2023-04-02T00:53:00.471Z,4.12
2023-04-02T00:55:35.376Z,4.11
2023-04-02T00:58:05.453Z,4.01
2023-04-02T01:00:35.577Z,4.06
2023-04-02T01:03:30.457Z,4.02
2023-04-02T01:06:03.305Z,4.04
2023-04-02T01:08:45.543Z,4.10
2023-04-02T01:11:32.107Z,4.17
2023-04-02T01:14:08.167Z,4.17
2023-04-02T01:16:46.417Z,4.20
2023-04-02T01:19:41.021Z,4.24
2023-04-02T01:22:22.095Z,4.26
2023-04-02T01:24:52.022Z,4.13
2023-04-02T01:27:26.238Z,4.14
2023-04-02T01:30:02.025Z,4.13
2023-04-02T01:32:32.189Z,4.10
2023-04-02T01:35:03.452Z,4.04
2023-04-02T01:37:45.896Z,3.98
2023-04-02T01:40:27.638Z,4.08
2023-04-02T01:43:02.100Z,4.03
2023-04-02T01:45:32.310Z,4.02
2023-04-02T01:48:02.892Z,4.15
2023-04-02T01:50:37.326Z,4.30
2023-04-02T01:53:10.944Z,4.28
2023-04-02T01:55:44.425Z,4.24
2023-04-02T01:58:14.395Z,4.28
2023-04-02T02:00:51.081Z,4.28
2023-04-02T02:03:23.020Z,4.37
2023-04-02T02:05:52.476Z,4.24
2023-04-02T02:08:33.619Z,4.15
2023-04-02T02:11:03.452Z,4.18
2023-04-02T02:13:32.262Z,4.29
2023-04-02T02:16:09.111Z,4.27
2023-04-02T02:18:37.545Z,4.28
2023-04-02T02:21:09.759Z,4.30
2023-04-02T02:23:38.337Z,4.22
2023-04-02T02:26:08.544Z,4.24
2023-04-02T02:28:42.288Z,4.19
2023-04-02T02:31:18.604Z,4.22
2023-04-02T02:33:52.364Z,4.21
2023-04-02T02:36:26.206Z,4.14
2023-04-02T02:39:01.034Z,4.22
2023-04-02T02:41:36.758Z,4.06
2023-04-02T02:44:16.044Z,4.06
2023-04-02T02:46:50.665Z,4.13
2023-04-02T02:49:23.635Z,4.19
2023-04-02T02:51:59.570Z,4.16
2023-04-02T02:54:28.999Z,4.15
2023-04-02T02:57:02.282Z,4.16
2023-04-02T02:59:31.913Z,4.16
2023-04-02T03:02:03.874Z,4.03
2023-04-02T03:04:36.030Z,3.95
2023-04-02T03:07:07.247Z,4.08
2023-04-02T03:09:41.579Z,4.04
2023-04-02T03:12:30.510Z,3.89
2023-04-02T03:15:04.781Z,3.91
2023-04-02T03:17:38.083Z,3.95
2023-04-02T03:20:14.762Z,4.06
2023-04-02T03:22:47.998Z,4.02
2023-04-02T03:25:27.610Z,4.00
2023-04-02T03:28:01.874Z,4.03
2023-04-02T03:30:36.157Z,3.95
2023-04-02T03:33:15.062Z,3.95
2023-04-02T03:35:48.545Z,3.93
2023-04-02T03:38:23.074Z,3.99
2023-04-02T03:41:00.886Z,4.01
2023-04-02T03:43:33.499Z,4.07
2023-04-02T03:46:12.241Z,3.98
2023-04-02T03:48:46.054Z,4.12
2023-04-02T03:51:19.434Z,4.10
2023-04-02T03:53:48.921Z,4.07
2023-04-02T03:56:31.967Z,4.07
2023-04-02T03:59:12.225Z,3.89
2023-04-02T04:01:48.379Z,3.96
2023-04-02T04:04:20.846Z,3.93
2023-04-02T04:06:52.781Z,3.93
2023-04-02T04:09:27.134Z,4.04
2023-04-02T04:12:07.367Z,4.10
2023-04-02T04:14:38.412Z,4.00
2023-04-02T04:17:16.707Z,3.97
2023-04-02T04:19:49.676Z,4.00
2023-04-02T04:22:20.206Z,3.91
2023-04-02T04:24:49.203Z,3.92
2023-04-02T04:27:25.313Z,3.91
2023-04-02T04:30:00.145Z,3.97
2023-04-02T04:32:33.877Z,3.90
2023-04-02T04:35:09.304Z,4.08
2023-04-02T04:37:43.313Z,4.02
2023-04-02T04:40:19.989Z,4.02
2023-04-02T04:42:52.266Z,4.06
2023-04-02T04:45:37.748Z,4.15
2023-04-02T04:48:10.218Z,4.19
2023-04-02T04:50:49.245Z,4.08
2023-04-02T04:53:21.165Z,4.08
2023-04-02T04:55:50.503Z,4.19
2023-04-02T04:58:24.359Z,4.28
2023-04-02T05:01:01.974Z,4.25
2023-04-02T05:03:36.549Z,4.37
2023-04-02T05:06:12.578Z,4.41
2023-04-02T05:08:45.931Z,4.41
2023-04-02T05:11:21.154Z,4.57
2023-04-02T05:13:54.909Z,4.65
2023-04-02T05:16:27.668Z,4.74
2023-04-02T05:19:03.563Z,4.84
2023-04-02T05:21:42.468Z,4.88
2023-04-02T05:24:43.126Z,5.08
2023-04-02T05:27:26.770Z,5.07
2023-04-02T05:30:02.458Z,4.99
2023-04-02T05:32:34.441Z,5.22
2023-04-02T05:35:06.277Z,5.23
2023-04-02T05:37:36.046Z,5.30
2023-04-02T05:40:15.075Z,5.42
2023-04-02T05:42:46.834Z,5.37
2023-04-02T05:45:27.226Z,5.52
2023-04-02T05:48:00.349Z,5.60
2023-04-02T05:50:31.745Z,5.67
2023-04-02T05:53:11.200Z,5.61
2023-04-02T05:55:46.012Z,5.75
2023-04-02T05:58:35.477Z,5.83
2023-04-02T06:01:19.000Z,5.87
2023-04-02T06:03:54.685Z,5.93
2023-04-02T06:06:30.807Z,6.08
2023-04-02T06:09:08.910Z,6.06
2023-04-02T06:11:42.987Z,5.94
2023-04-02T06:14:14.440Z,6.18
2023-04-02T06:16:44.964Z,6.34
2023-04-02T06:19:20.116Z,6.33
2023-04-02T06:21:50.429Z,6.57
2023-04-02T06:24:26.675Z,6.76
2023-04-02T06:27:02.912Z,6.71
2023-04-02T06:29:39.620Z,6.71
2023-04-02T06:32:10.056Z,6.67
2023-04-02T06:34:40.066Z,6.67
2023-04-02T06:37:21.145Z,6.64
2023-04-02T06:39:53.078Z,6.54
2023-04-02T06:42:26.279Z,6.75
2023-04-02T06:44:54.371Z,6.70
2023-04-02T06:47:32.048Z,6.83
2023-04-02T06:50:06.488Z,6.76
2023-04-02T06:52:38.930Z,6.62
2023-04-02T06:55:27.593Z,6.86
2023-04-02T06:57:56.950Z,6.79
2023-04-02T07:00:30.795Z,6.92
2023-04-02T07:03:02.708Z,7.10
2023-04-02T07:05:30.876Z,7.21
2023-04-02T07:07:59.269Z,7.20
2023-04-02T07:10:29.654Z,7.05
2023-04-02T07:12:57.899Z,6.86
2023-04-02T07:15:26.087Z,6.72
2023-04-02T07:18:00.773Z,6.63
2023-04-02T07:20:31.963Z,6.91
2023-04-02T07:23:02.523Z,6.74
2023-04-02T07:25:32.463Z,6.91
2023-04-02T07:28:03.497Z,7.05
2023-04-02T07:30:31.932Z,6.98
2023-04-02T07:33:05.407Z,7.41
2023-04-02T07:35:36.318Z,7.43
2023-04-02T07:38:04.844Z,7.81
2023-04-02T07:40:35.942Z,8.18
2023-04-02T07:43:04.203Z,8.33
2023-04-02T07:45:32.858Z,8.45
2023-04-02T07:48:06.515Z,8.76
2023-04-02T07:50:34.666Z,8.06
2023-04-02T07:53:02.713Z,8.24
2023-04-02T07:55:30.917Z,8.54
2023-04-02T07:58:04.381Z,9.98
2023-04-02T08:00:32.363Z,10.16
2023-04-02T08:03:01.526Z,9.34
2023-04-02T08:05:29.501Z,9.09
2023-04-02T08:08:00.674Z,10.37
2023-04-02T08:10:28.703Z,10.23
2023-04-02T08:12:57.085Z,11.14
2023-04-02T08:15:26.891Z,12.97
2023-04-02T08:17:55.076Z,14.02
2023-04-02T08:20:24.654Z,14.76
2023-04-02T08:22:53.045Z,15.36
2023-04-02T08:25:21.189Z,16.37
2023-04-02T08:27:50.217Z,16.25
2023-04-02T08:30:19.357Z,16.28
2023-04-02T08:32:49.225Z,16.85
2023-04-02T08:35:18.288Z,17.13
2023-04-02T08:37:46.715Z,17.87
2023-04-02T08:40:26.139Z,15.07
2023-04-02T08:43:08.592Z,12.87
2023-04-02T08:45:47.227Z,13.36
2023-04-02T08:48:17.747Z,14.20
2023-04-02T08:50:46.359Z,15.27
2023-04-02T08:53:19.572Z,15.42
2023-04-02T08:55:56.258Z,15.43
2023-04-02T08:58:38.700Z,15.67
2023-04-02T09:01:09.268Z,15.72
2023-04-02T09:03:42.760Z,16.55
2023-04-02T09:06:16.903Z,15.03
2023-04-02T09:08:46.410Z,15.52
2023-04-02T09:11:21.638Z,15.80
2023-04-02T09:13:56.279Z,16.90
2023-04-02T09:16:39.080Z,15.91
2023-04-02T09:19:18.610Z,16.12
2023-04-02T09:21:57.895Z,17.31
2023-04-02T09:24:26.220Z,17.28
2023-04-02T09:26:54.583Z,17.47
2023-04-02T09:29:41.012Z,17.74
2023-04-02T09:32:26.419Z,17.27
2023-04-02T09:35:18.340Z,17.10
2023-04-02T09:38:13.367Z,16.47
2023-04-02T09:40:47.691Z,15.37
2023-04-02T09:43:19.094Z,14.14
2023-04-02T09:46:01.847Z,13.34
2023-04-02T09:48:32.992Z,13.42
2023-04-02T09:51:26.503Z,13.62
2023-04-02T09:54:10.192Z,13.02
2023-04-02T09:56:41.242Z,13.03
2023-04-02T09:59:18.057Z,12.07
2023-04-02T10:01:48.947Z,11.62
2023-04-02T10:04:39.022Z,11.69
2023-04-02T10:07:08.940Z,12.05
2023-04-02T10:09:39.070Z,12.11
2023-04-02T10:12:13.973Z,12.36
2023-04-02T10:14:44.553Z,11.98
2023-04-02T10:17:19.029Z,12.32
2023-04-02T10:19:52.021Z,11.71
2023-04-02T10:22:25.042Z,11.72
2023-04-02T10:24:53.588Z,12.14
2023-04-02T10:27:29.798Z,12.10
2023-04-02T10:30:17.164Z,12.06
2023-04-02T10:32:52.738Z,11.92
2023-04-02T10:35:29.989Z,12.17
2023-04-02T10:38:25.467Z,12.36
2023-04-02T10:40:59.882Z,11.92
2023-04-02T10:43:41.977Z,12.26
2023-04-02T10:46:23.637Z,12.12
2023-04-02T10:49:02.034Z,11.64
2023-04-02T10:51:38.125Z,11.74
2023-04-02T10:54:23.555Z,11.58
2023-04-02T10:56:56.420Z,11.25
2023-04-02T10:59:30.076Z,11.17
2023-04-02T11:02:02.788Z,10.95
2023-04-02T11:04:41.453Z,10.68
2023-04-02T11:07:17.746Z,10.47
2023-04-02T11:09:53.382Z,10.37
2023-04-02T11:12:28.063Z,10.75
2023-04-02T11:14:59.562Z,10.55
2023-04-02T11:17:27.910Z,10.44
2023-04-02T11:19:57.890Z,10.27
2023-04-02T11:22:26.395Z,10.46
2023-04-02T11:24:58.350Z,10.78
2023-04-02T11:27:29.215Z,11.10
2023-04-02T11:30:07.023Z,10.61
2023-04-02T11:32:41.097Z,10.37
2023-04-02T11:35:38.463Z,10.31
2023-04-02T11:38:40.136Z,10.30
2023-04-02T11:41:09.654Z,10.43
2023-04-02T11:44:04.546Z,10.28
2023-04-02T11:46:45.583Z,10.36
2023-04-02T11:49:36.700Z,10.62
2023-04-02T11:52:12.240Z,10.52
2023-04-02T11:54:42.373Z,10.65
2023-04-02T11:57:27.166Z,10.77
2023-04-02T12:00:18.362Z,10.54
2023-04-02T12:03:03.545Z,10.54
2023-04-02T12:05:44.612Z,10.66
2023-04-02T12:08:30.898Z,10.43
2023-04-02T12:11:04.435Z,10.51
2023-04-02T12:13:58.782Z,10.51
2023-04-02T12:16:33.292Z,10.31
2023-04-02T12:19:02.498Z,10.20
2023-04-02T12:21:31.205Z,10.32
2023-04-02T12:24:01.308Z,10.33
2023-04-02T12:26:38.429Z,10.34
2023-04-02T12:29:28.589Z,10.22
2023-04-02T12:31:58.453Z,9.95
2023-04-02T12:34:28.830Z,9.86
2023-04-02T12:37:05.059Z,9.94
2023-04-02T12:39:34.920Z,10.17
2023-04-02T12:42:02.953Z,10.28
2023-04-02T12:44:34.655Z,10.15
2023-04-02T12:47:03.010Z,10.22
2023-04-02T12:49:38.152Z,10.27
2023-04-02T12:52:08.730Z,10.03
2023-04-02T12:54:39.714Z,10.05
2023-04-02T12:57:32.565Z,10.07
2023-04-02T13:00:06.528Z,10.18
2023-04-02T13:02:47.363Z,10.01
2023-04-02T13:05:31.709Z,10.08
2023-04-02T13:08:03.254Z,10.07
2023-04-02T13:10:31.562Z,9.88
2023-04-02T13:13:00.877Z,10.03
2023-04-02T13:15:32.146Z,10.22
2023-04-02T13:18:06.569Z,10.24
2023-04-02T13:20:36.958Z,10.26
2023-04-02T13:23:25.913Z,10.33
2023-04-02T13:25:54.611Z,10.28
2023-04-02T13:28:22.725Z,10.31
2023-04-02T13:30:52.024Z,10.32
2023-04-02T13:33:20.549Z,10.44
2023-04-02T13:35:48.731Z,10.45
2023-04-02T13:38:19.709Z,10.28
2023-04-02T13:40:47.845Z,10.05
2023-04-02T13:43:19.869Z,10.05
2023-04-02T13:45:52.868Z,10.26
2023-04-02T13:48:24.600Z,10.43
2023-04-02T13:50:53.858Z,10.19
2023-04-02T13:53:26.230Z,9.96
2023-04-02T13:55:54.472Z,10.08
2023-04-02T13:58:22.897Z,10.05
2023-04-02T14:00:52.415Z,10.21
2023-04-02T14:03:22.956Z,10.25
2023-04-02T14:06:00.757Z,10.26
2023-04-02T14:08:39.398Z,10.49
2023-04-02T14:11:32.952Z,10.59
2023-04-02T14:14:19.269Z,11.04
2023-04-02T14:17:00.593Z,10.83
2023-04-02T14:20:00.187Z,10.70
2023-04-02T14:22:42.373Z,10.48
2023-04-02T14:25:19.308Z,10.42
2023-04-02T14:27:54.323Z,10.46
2023-04-02T14:30:28.389Z,10.67
2023-04-02T14:33:08.171Z,10.54
2023-04-02T14:35:39.207Z,10.50
2023-04-02T14:38:15.056Z,10.33
2023-04-02T14:40:49.689Z,10.22
2023-04-02T14:43:23.828Z,10.63
2023-04-02T14:46:00.952Z,10.55
2023-04-02T14:48:44.488Z,10.39
2023-04-02T14:51:18.707Z,10.09
2023-04-02T14:53:55.658Z,9.90
2023-04-02T14:56:26.045Z,10.28
2023-04-02T14:58:59.288Z,10.27
2023-04-02T15:01:32.894Z,10.20
2023-04-02T15:04:05.884Z,10.03
2023-04-02T15:06:38.206Z,9.93
2023-04-02T15:09:13.259Z,9.87
2023-04-02T15:11:47.242Z,9.76
2023-04-02T15:14:21.282Z,9.75
2023-04-02T15:16:49.320Z,9.66
2023-04-02T15:19:20.377Z,9.91
2023-04-02T15:22:20.564Z,10.14
2023-04-02T15:24:58.882Z,10.21
2023-04-02T15:27:35.680Z,10.10
2023-04-02T15:30:09.623Z,9.74
2023-04-02T15:32:42.204Z,9.51
2023-04-02T15:35:27.993Z,9.25
2023-04-02T15:38:02.758Z,9.25
2023-04-02T15:40:52.583Z,9.76
2023-04-02T15:43:26.377Z,9.94
2023-04-02T15:46:10.546Z,9.79
2023-04-02T15:49:02.696Z,9.53
2023-04-02T15:51:47.230Z,9.48
2023-04-02T15:54:30.497Z,9.31
2023-04-02T15:57:11.772Z,9.22
2023-04-02T15:59:56.397Z,9.09
2023-04-02T16:03:06.637Z,8.98
2023-04-02T16:05:43.312Z,8.78
2023-04-02T16:08:43.890Z,8.85
2023-04-02T16:11:13.008Z,8.62
2023-04-02T16:13:42.678Z,8.78
2023-04-02T16:16:16.336Z,8.72
2023-04-02T16:18:52.312Z,8.71
2023-04-02T16:21:22.904Z,8.72
2023-04-02T16:23:52.545Z,8.77
2023-04-02T16:26:30.387Z,8.63
2023-04-02T16:29:09.937Z,8.69
2023-04-02T16:31:47.489Z,8.59
2023-04-02T16:34:26.555Z,8.51
2023-04-02T16:37:02.503Z,8.37
2023-04-02T16:39:41.547Z,8.28
2023-04-02T16:42:24.427Z,8.33
2023-04-02T16:45:02.981Z,8.29
2023-04-02T16:48:01.963Z,8.24
2023-04-02T16:50:38.488Z,8.31
2023-04-02T16:53:19.699Z,8.26
2023-04-02T16:56:07.089Z,8.29
2023-04-02T16:58:47.217Z,8.11
2023-04-02T17:01:23.104Z,7.94
2023-04-02T17:04:20.272Z,7.98
2023-04-02T17:06:58.907Z,7.92
2023-04-02T17:09:35.554Z,7.92
2023-04-02T17:12:21.017Z,7.78
2023-04-02T17:14:53.299Z,7.86
2023-04-02T17:17:23.587Z,7.94
2023-04-02T17:19:54.674Z,7.95
2023-04-02T17:22:26.866Z,7.70
2023-04-02T17:24:58.860Z,7.66
2023-04-02T17:27:33.669Z,7.73
2023-04-02T17:30:13.578Z,7.73
2023-04-02T17:32:41.737Z,7.50
2023-04-02T17:35:23.966Z,7.75
2023-04-02T17:37:59.471Z,7.70
2023-04-02T17:40:32.256Z,7.76
2023-04-02T17:43:09.484Z,7.65
2023-04-02T17:45:45.796Z,7.62
2023-04-02T17:48:24.244Z,7.61
2023-04-02T17:51:06.207Z,7.58
2023-04-02T17:53:54.486Z,7.46
2023-04-02T17:56:43.658Z,7.30
2023-04-02T17:59:36.226Z,7.19
2023-04-02T18:02:17.567Z,7.33
2023-04-02T18:04:55.235Z,7.20
2023-04-02T18:07:37.213Z,7.09
2023-04-02T18:10:16.901Z,6.96
2023-04-02T18:12:57.266Z,7.01
2023-04-02T18:15:53.485Z,7.08
2023-04-02T18:18:40.130Z,6.88
2023-04-02T18:21:24.000Z,6.85
2023-04-02T18:24:04.021Z,6.88
2023-04-02T18:26:40.749Z,6.77
2023-04-02T18:29:28.515Z,6.81
2023-04-02T18:32:17.656Z,6.78
2023-04-02T18:35:01.495Z,6.85
2023-04-02T18:37:38.321Z,6.79
2023-04-02T18:40:24.900Z,6.76
2023-04-02T18:43:01.401Z,6.67
2023-04-02T18:45:41.139Z,6.72
2023-04-02T18:48:28.565Z,6.59
2023-04-02T18:50:57.342Z,6.49
2023-04-02T18:53:27.515Z,6.44
2023-04-02T18:55:58.192Z,6.49
2023-04-02T18:58:31.141Z,6.37
2023-04-02T19:00:59.947Z,6.39
2023-04-02T19:03:33.887Z,6.44
2023-04-02T19:06:05.622Z,6.39
2023-04-02T19:08:39.425Z,6.45
2023-04-02T19:11:13.105Z,6.36
2023-04-02T19:13:41.091Z,6.30
2023-04-02T19:16:33.933Z,6.37
2023-04-02T19:19:11.822Z,6.31
2023-04-02T19:22:00.858Z,6.31
2023-04-02T19:24:43.797Z,6.18
2023-04-02T19:27:21.539Z,6.17
2023-04-02T19:30:02.457Z,6.26
2023-04-02T19:32:41.662Z,6.22
2023-04-02T19:35:19.419Z,6.16
2023-04-02T19:37:57.941Z,6.10
2023-04-02T19:40:36.148Z,6.10
2023-04-02T19:43:04.487Z,6.01
2023-04-02T19:45:38.788Z,6.01
2023-04-02T19:48:19.270Z,5.97
2023-04-02T19:50:50.214Z,5.91
2023-04-02T19:53:19.048Z,5.93
2023-04-02T19:55:49.378Z,5.90
2023-04-02T19:58:27.282Z,5.93
2023-04-02T20:00:55.964Z,5.90
2023-04-02T20:03:24.542Z,5.93
2023-04-02T20:05:56.818Z,5.82
2023-04-02T20:08:24.816Z,5.90
2023-04-02T20:10:52.957Z,5.85
2023-04-02T20:13:20.877Z,5.79
2023-04-02T20:15:49.312Z,5.72
2023-04-02T20:18:17.790Z,5.77
2023-04-02T20:20:47.036Z,5.83
2023-04-02T20:23:20.997Z,5.75
2023-04-02T20:25:53.076Z,5.72
2023-04-02T20:28:22.072Z,5.70
2023-04-02T20:30:51.136Z,5.58
2023-04-02T20:33:20.404Z,5.54
2023-04-02T20:35:49.889Z,5.41
2023-04-02T20:38:22.491Z,5.42
2023-04-02T20:40:53.055Z,5.39
2023-04-02T20:43:21.631Z,5.37
2023-04-02T20:45:54.946Z,5.40
2023-04-02T20:48:24.606Z,5.50
2023-04-02T20:50:53.156Z,5.43
2023-04-02T20:53:22.695Z,5.46
2023-04-02T20:55:51.283Z,5.41
2023-04-02T20:58:20.258Z,5.22
2023-04-02T21:00:48.447Z,5.33
2023-04-02T21:03:17.142Z,5.29
2023-04-02T21:05:45.484Z,5.41
2023-04-02T21:08:14.211Z,5.37
2023-04-02T21:10:43.630Z,5.41
2023-04-02T21:13:12.244Z,5.42
2023-04-02T21:15:45.809Z,5.41
2023-04-02T21:18:14.342Z,5.28
2023-04-02T21:20:42.517Z,5.28
2023-04-02T21:23:10.702Z,5.23
2023-04-02T21:25:39.071Z,5.23
2023-04-02T21:28:14.897Z,5.04
2023-04-02T21:30:43.748Z,5.07
2023-04-02T21:33:11.675Z,4.97
2023-04-02T21:35:40.312Z,5.11
2023-04-02T21:38:11.531Z,5.18
2023-04-02T21:40:40.201Z,5.25
2023-04-02T21:43:09.799Z,5.35
2023-04-02T21:45:39.205Z,5.35
2023-04-02T21:48:07.614Z,5.33
2023-04-02T21:50:36.059Z,5.17
2023-04-02T21:53:04.277Z,5.10
2023-04-02T21:55:32.750Z,5.09
2023-04-02T21:58:00.924Z,5.11
2023-04-02T22:00:30.594Z,5.16
2023-04-02T22:02:58.718Z,5.12
2023-04-02T22:05:30.082Z,5.12
2023-04-02T22:07:58.186Z,5.00
2023-04-02T22:10:26.367Z,5.00
2023-04-02T22:12:54.380Z,4.99
2023-04-02T22:15:24.097Z,4.98
2023-04-02T22:17:54.216Z,4.94
2023-04-02T22:20:22.142Z,4.95
2023-04-02T22:22:51.453Z,4.91
2023-04-02T22:25:19.523Z,4.82
2023-04-02T22:27:47.600Z,4.81
2023-04-02T22:30:19.255Z,4.66
2023-04-02T22:32:47.647Z,4.52
2023-04-02T22:35:17.271Z,4.56
2023-04-02T22:37:45.296Z,4.56
2023-04-02T22:40:13.799Z,4.36
2023-04-02T22:42:43.424Z,4.38
2023-04-02T22:45:12.528Z,4.41
2023-04-02T22:47:40.831Z,4.36
2023-04-02T22:50:09.606Z,4.33
2023-04-02T22:52:44.956Z,4.42
2023-04-02T22:55:15.172Z,4.29
2023-04-02T22:57:44.106Z,4.29
2023-04-02T23:00:15.100Z,4.32
2023-04-02T23:02:43.439Z,4.35
2023-04-02T23:05:14.825Z,4.22
2023-04-02T23:07:44.453Z,4.24
2023-04-02T23:10:12.707Z,4.32
2023-04-02T23:12:40.762Z,4.17
2023-04-02T23:15:10.824Z,4.14
2023-04-02T23:17:38.798Z,4.21
2023-04-02T23:20:08.023Z,4.16
2023-04-02T23:22:36.870Z,4.21
2023-04-02T23:25:06.990Z,4.20
2023-04-02T23:27:35.160Z,4.18
2023-04-02T23:30:03.134Z,4.11
2023-04-02T23:32:31.374Z,4.03
2023-04-02T23:34:59.299Z,4.12
2023-04-02T23:37:27.230Z,3.90
2023-04-02T23:39:55.259Z,3.82
2023-04-02T23:42:26.526Z,3.83
2023-04-02T23:44:55.320Z,3.85
2023-04-02T23:47:23.259Z,3.98
2023-04-02T23:49:51.345Z,3.82
2023-04-02T23:52:19.340Z,3.88
2023-04-02T23:54:47.198Z,3.80
2023-04-02T23:57:17.525Z,3.84
2023-04-02T23:59:47.013Z,3.78
